sensor_id;sensor_type;location;lat;lon;timestamp;P1;durP1;ratioP1;P2;durP2;ratioP2
54923;SDS011;40825;52.270;20.984;2023-05-10T00:00:50;10.30;;;4.50;;
54923;SDS011;40825;52.270;20.984;2023-05-10T00:03:16;13.80;;;4.30;;
54923;SDS011;40825;52.270;20.984;2023-05-10T00:05:42;10.70;;;4.40;;
54923;SDS011;40825;52.270;20.984;2023-05-10T00:08:07;11.90;;;3.90;;
54923;SDS011;40825;52.270;20.984;2023-05-10T00:10:33;9.00;;;3.70;;
54923;SDS011;40825;52.270;20.984;2023-05-10T00:12:58;8.70;;;3.20;;
54923;SDS011;40825;52.270;20.984;2023-05-10T00:15:24;8.20;;;3.30;;
54923;SDS011;40825;52.270;20.984;2023-05-10T00:17:49;8.80;;;3.90;;
54923;SDS011;40825;52.270;20.984;2023-05-10T00:20:15;10.70;;;4.20;;
54923;SDS011;40825;52.270;20.984;2023-05-10T00:22:40;7.90;;;3.00;;
54923;SDS011;40825;52.270;20.984;2023-05-10T00:25:06;7.40;;;3.40;;
54923;SDS011;40825;52.270;20.984;2023-05-10T00:27:32;8.10;;;3.50;;
54923;SDS011;40825;52.270;20.984;2023-05-10T00:29:58;9.30;;;4.30;;
54923;SDS011;40825;52.270;20.984;2023-05-10T00:32:23;8.70;;;3.80;;
54923;SDS011;40825;52.270;20.984;2023-05-10T00:34:49;9.30;;;4.20;;
54923;SDS011;40825;52.270;20.984;2023-05-10T00:37:14;8.00;;;3.80;;
54923;SDS011;40825;52.270;20.984;2023-05-10T00:39:40;8.70;;;2.90;;
54923;SDS011;40825;52.270;20.984;2023-05-10T00:42:05;8.20;;;3.60;;
54923;SDS011;40825;52.270;20.984;2023-05-10T00:44:30;9.10;;;3.50;;
54923;SDS011;40825;52.270;20.984;2023-05-10T00:46:56;8.00;;;4.10;;
54923;SDS011;40825;52.270;20.984;2023-05-10T00:49:23;9.60;;;3.90;;
54923;SDS011;40825;52.270;20.984;2023-05-10T00:51:48;8.60;;;3.10;;
54923;SDS011;40825;52.270;20.984;2023-05-10T00:54:14;9.30;;;3.80;;
54923;SDS011;40825;52.270;20.984;2023-05-10T00:56:40;7.70;;;3.40;;
54923;SDS011;40825;52.270;20.984;2023-05-10T00:59:09;7.60;;;3.30;;
54923;SDS011;40825;52.270;20.984;2023-05-10T01:04:01;8.30;;;3.50;;
54923;SDS011;40825;52.270;20.984;2023-05-10T01:06:28;8.10;;;3.00;;
54923;SDS011;40825;52.270;20.984;2023-05-10T01:08:54;8.80;;;3.50;;
54923;SDS011;40825;52.270;20.984;2023-05-10T01:11:21;12.40;;;3.90;;
54923;SDS011;40825;52.270;20.984;2023-05-10T01:13:47;6.60;;;3.00;;
54923;SDS011;40825;52.270;20.984;2023-05-10T01:16:20;8.10;;;3.10;;
54923;SDS011;40825;52.270;20.984;2023-05-10T01:18:46;7.30;;;3.20;;
54923;SDS011;40825;52.270;20.984;2023-05-10T01:37:50;5.80;;;2.90;;
54923;SDS011;40825;52.270;20.984;2023-05-10T01:40:29;8.70;;;3.30;;
54923;SDS011;40825;52.270;20.984;2023-05-10T01:43:02;6.70;;;3.00;;
54923;SDS011;40825;52.270;20.984;2023-05-10T01:45:33;7.80;;;3.50;;
54923;SDS011;40825;52.270;20.984;2023-05-10T01:48:21;7.90;;;3.40;;
54923;SDS011;40825;52.270;20.984;2023-05-10T01:50:48;10.80;;;2.80;;
54923;SDS011;40825;52.270;20.984;2023-05-10T01:53:17;7.60;;;3.00;;
54923;SDS011;40825;52.270;20.984;2023-05-10T01:58:15;7.30;;;3.00;;
54923;SDS011;40825;52.270;20.984;2023-05-10T02:00:46;6.60;;;3.30;;
54923;SDS011;40825;52.270;20.984;2023-05-10T02:05:40;9.40;;;3.20;;
54923;SDS011;40825;52.270;20.984;2023-05-10T02:08:07;6.50;;;2.70;;
54923;SDS011;40825;52.270;20.984;2023-05-10T02:10:34;6.20;;;2.80;;
54923;SDS011;40825;52.270;20.984;2023-05-10T02:13:00;7.60;;;3.20;;
54923;SDS011;40825;52.270;20.984;2023-05-10T02:15:27;6.20;;;3.10;;
54923;SDS011;40825;52.270;20.984;2023-05-10T02:17:55;7.70;;;3.00;;
54923;SDS011;40825;52.270;20.984;2023-05-10T02:20:22;7.40;;;3.10;;
54923;SDS011;40825;52.270;20.984;2023-05-10T02:22:50;8.20;;;3.30;;
54923;SDS011;40825;52.270;20.984;2023-05-10T02:25:17;8.90;;;3.00;;
54923;SDS011;40825;52.270;20.984;2023-05-10T02:27:46;10.20;;;3.20;;
54923;SDS011;40825;52.270;20.984;2023-05-10T02:30:13;8.80;;;2.90;;
54923;SDS011;40825;52.270;20.984;2023-05-10T02:32:40;8.30;;;3.40;;
54923;SDS011;40825;52.270;20.984;2023-05-10T02:35:08;8.50;;;2.80;;
54923;SDS011;40825;52.270;20.984;2023-05-10T02:37:36;7.20;;;2.80;;
54923;SDS011;40825;52.270;20.984;2023-05-10T02:40:04;6.60;;;2.80;;
54923;SDS011;40825;52.270;20.984;2023-05-10T02:42:32;8.80;;;4.00;;
54923;SDS011;40825;52.270;20.984;2023-05-10T02:45:01;8.10;;;3.30;;
54923;SDS011;40825;52.270;20.984;2023-05-10T02:47:29;9.90;;;3.30;;
54923;SDS011;40825;52.270;20.984;2023-05-10T02:49:54;8.00;;;2.90;;
54923;SDS011;40825;52.270;20.984;2023-05-10T02:52:25;7.90;;;3.10;;
54923;SDS011;40825;52.270;20.984;2023-05-10T02:54:58;7.00;;;2.90;;
54923;SDS011;40825;52.270;20.984;2023-05-10T02:57:28;7.60;;;3.20;;
54923;SDS011;40825;52.270;20.984;2023-05-10T02:59:59;8.30;;;3.70;;
54923;SDS011;40825;52.270;20.984;2023-05-10T03:02:25;10.10;;;3.00;;
54923;SDS011;40825;52.270;20.984;2023-05-10T03:04:51;7.80;;;3.20;;
54923;SDS011;40825;52.270;20.984;2023-05-10T03:07:17;7.20;;;2.60;;
54923;SDS011;40825;52.270;20.984;2023-05-10T03:09:47;8.60;;;3.10;;
54923;SDS011;40825;52.270;20.984;2023-05-10T03:19:53;6.90;;;3.20;;
54923;SDS011;40825;52.270;20.984;2023-05-10T03:22:23;8.40;;;3.50;;
54923;SDS011;40825;52.270;20.984;2023-05-10T03:24:53;10.70;;;3.20;;
54923;SDS011;40825;52.270;20.984;2023-05-10T03:27:23;6.10;;;2.70;;
54923;SDS011;40825;52.270;20.984;2023-05-10T03:29:50;7.50;;;3.30;;
54923;SDS011;40825;52.270;20.984;2023-05-10T03:32:17;10.70;;;3.00;;
54923;SDS011;40825;52.270;20.984;2023-05-10T03:34:43;8.10;;;2.90;;
54923;SDS011;40825;52.270;20.984;2023-05-10T03:37:09;8.00;;;2.90;;
54923;SDS011;40825;52.270;20.984;2023-05-10T03:39:35;9.10;;;3.80;;
54923;SDS011;40825;52.270;20.984;2023-05-10T03:42:00;9.30;;;3.00;;
54923;SDS011;40825;52.270;20.984;2023-05-10T03:44:26;8.20;;;3.30;;
54923;SDS011;40825;52.270;20.984;2023-05-10T03:46:51;8.70;;;3.20;;
54923;SDS011;40825;52.270;20.984;2023-05-10T03:49:17;7.80;;;3.20;;
54923;SDS011;40825;52.270;20.984;2023-05-10T03:51:43;7.10;;;3.00;;
54923;SDS011;40825;52.270;20.984;2023-05-10T03:54:08;8.10;;;3.40;;
54923;SDS011;40825;52.270;20.984;2023-05-10T03:56:34;7.40;;;2.80;;
54923;SDS011;40825;52.270;20.984;2023-05-10T03:58:59;7.10;;;3.10;;
54923;SDS011;40825;52.270;20.984;2023-05-10T04:01:25;6.90;;;2.90;;
54923;SDS011;40825;52.270;20.984;2023-05-10T04:03:50;8.20;;;3.50;;
54923;SDS011;40825;52.270;20.984;2023-05-10T04:06:16;7.10;;;2.90;;
54923;SDS011;40825;52.270;20.984;2023-05-10T04:08:41;7.10;;;2.90;;
54923;SDS011;40825;52.270;20.984;2023-05-10T04:11:10;8.60;;;4.00;;
54923;SDS011;40825;52.270;20.984;2023-05-10T04:13:37;8.60;;;3.40;;
54923;SDS011;40825;52.270;20.984;2023-05-10T04:16:03;10.00;;;3.40;;
54923;SDS011;40825;52.270;20.984;2023-05-10T04:18:29;6.60;;;3.00;;
54923;SDS011;40825;52.270;20.984;2023-05-10T04:20:55;9.20;;;3.40;;
54923;SDS011;40825;52.270;20.984;2023-05-10T04:23:20;7.50;;;3.50;;
54923;SDS011;40825;52.270;20.984;2023-05-10T04:25:46;7.10;;;3.10;;
54923;SDS011;40825;52.270;20.984;2023-05-10T04:28:12;11.10;;;3.30;;
54923;SDS011;40825;52.270;20.984;2023-05-10T04:30:37;7.40;;;3.40;;
54923;SDS011;40825;52.270;20.984;2023-05-10T04:33:03;9.00;;;3.90;;
54923;SDS011;40825;52.270;20.984;2023-05-10T04:35:28;9.60;;;3.70;;
54923;SDS011;40825;52.270;20.984;2023-05-10T04:37:54;9.40;;;3.30;;
54923;SDS011;40825;52.270;20.984;2023-05-10T04:40:19;8.40;;;3.90;;
54923;SDS011;40825;52.270;20.984;2023-05-10T04:42:45;8.50;;;4.00;;
54923;SDS011;40825;52.270;20.984;2023-05-10T04:45:11;8.60;;;3.60;;
54923;SDS011;40825;52.270;20.984;2023-05-10T04:47:37;8.10;;;3.40;;
54923;SDS011;40825;52.270;20.984;2023-05-10T04:50:03;10.10;;;3.50;;
54923;SDS011;40825;52.270;20.984;2023-05-10T04:52:29;9.70;;;3.50;;
54923;SDS011;40825;52.270;20.984;2023-05-10T04:54:54;7.30;;;3.20;;
54923;SDS011;40825;52.270;20.984;2023-05-10T04:57:20;8.90;;;3.90;;
54923;SDS011;40825;52.270;20.984;2023-05-10T04:59:46;8.70;;;3.40;;
54923;SDS011;40825;52.270;20.984;2023-05-10T05:02:11;8.80;;;3.60;;
54923;SDS011;40825;52.270;20.984;2023-05-10T05:04:37;9.80;;;3.40;;
54923;SDS011;40825;52.270;20.984;2023-05-10T05:07:02;8.40;;;3.10;;
54923;SDS011;40825;52.270;20.984;2023-05-10T05:09:28;11.30;;;3.10;;
54923;SDS011;40825;52.270;20.984;2023-05-10T05:11:53;11.20;;;3.90;;
54923;SDS011;40825;52.270;20.984;2023-05-10T05:14:19;10.50;;;3.30;;
54923;SDS011;40825;52.270;20.984;2023-05-10T05:16:46;7.10;;;2.60;;
54923;SDS011;40825;52.270;20.984;2023-05-10T05:19:11;10.70;;;3.30;;
54923;SDS011;40825;52.270;20.984;2023-05-10T05:21:37;8.40;;;3.60;;
54923;SDS011;40825;52.270;20.984;2023-05-10T05:24:03;8.80;;;3.00;;
54923;SDS011;40825;52.270;20.984;2023-05-10T05:26:29;7.00;;;2.90;;
54923;SDS011;40825;52.270;20.984;2023-05-10T05:28:55;10.30;;;3.10;;
54923;SDS011;40825;52.270;20.984;2023-05-10T05:31:20;9.10;;;3.20;;
54923;SDS011;40825;52.270;20.984;2023-05-10T05:33:46;9.10;;;3.30;;
54923;SDS011;40825;52.270;20.984;2023-05-10T05:36:11;5.40;;;2.50;;
54923;SDS011;40825;52.270;20.984;2023-05-10T05:38:37;7.40;;;3.20;;
54923;SDS011;40825;52.270;20.984;2023-05-10T05:41:02;9.50;;;2.80;;
54923;SDS011;40825;52.270;20.984;2023-05-10T05:43:28;7.10;;;3.10;;
54923;SDS011;40825;52.270;20.984;2023-05-10T05:45:54;7.90;;;2.90;;
54923;SDS011;40825;52.270;20.984;2023-05-10T05:48:19;7.30;;;2.70;;
54923;SDS011;40825;52.270;20.984;2023-05-10T05:50:45;6.10;;;2.70;;
54923;SDS011;40825;52.270;20.984;2023-05-10T05:53:11;9.90;;;2.60;;
54923;SDS011;40825;52.270;20.984;2023-05-10T05:55:36;11.60;;;2.90;;
54923;SDS011;40825;52.270;20.984;2023-05-10T05:58:02;7.90;;;2.70;;
54923;SDS011;40825;52.270;20.984;2023-05-10T06:00:28;7.70;;;2.50;;
54923;SDS011;40825;52.270;20.984;2023-05-10T06:02:54;6.10;;;2.50;;
54923;SDS011;40825;52.270;20.984;2023-05-10T06:05:19;8.10;;;2.60;;
54923;SDS011;40825;52.270;20.984;2023-05-10T06:07:45;8.60;;;2.60;;
54923;SDS011;40825;52.270;20.984;2023-05-10T06:10:11;10.70;;;3.30;;
54923;SDS011;40825;52.270;20.984;2023-05-10T06:12:36;6.40;;;3.00;;
54923;SDS011;40825;52.270;20.984;2023-05-10T06:15:02;7.00;;;3.00;;
54923;SDS011;40825;52.270;20.984;2023-05-10T06:17:30;9.10;;;3.00;;
54923;SDS011;40825;52.270;20.984;2023-05-10T06:19:56;6.20;;;2.30;;
54923;SDS011;40825;52.270;20.984;2023-05-10T06:22:21;7.10;;;2.80;;
54923;SDS011;40825;52.270;20.984;2023-05-10T06:24:48;7.90;;;2.20;;
54923;SDS011;40825;52.270;20.984;2023-05-10T06:27:14;7.00;;;2.30;;
54923;SDS011;40825;52.270;20.984;2023-05-10T06:29:39;7.70;;;3.10;;
54923;SDS011;40825;52.270;20.984;2023-05-10T06:32:05;8.10;;;2.90;;
54923;SDS011;40825;52.270;20.984;2023-05-10T06:34:30;6.50;;;2.40;;
54923;SDS011;40825;52.270;20.984;2023-05-10T06:36:56;6.80;;;2.30;;
54923;SDS011;40825;52.270;20.984;2023-05-10T06:39:22;8.10;;;2.00;;
54923;SDS011;40825;52.270;20.984;2023-05-10T06:41:47;7.20;;;2.00;;
54923;SDS011;40825;52.270;20.984;2023-05-10T06:44:13;6.50;;;2.10;;
54923;SDS011;40825;52.270;20.984;2023-05-10T06:46:38;5.90;;;1.90;;
54923;SDS011;40825;52.270;20.984;2023-05-10T06:49:04;8.10;;;2.20;;
54923;SDS011;40825;52.270;20.984;2023-05-10T06:51:29;7.00;;;2.00;;
54923;SDS011;40825;52.270;20.984;2023-05-10T06:53:55;5.80;;;2.00;;
54923;SDS011;40825;52.270;20.984;2023-05-10T06:56:21;6.80;;;2.10;;
54923;SDS011;40825;52.270;20.984;2023-05-10T06:58:47;5.30;;;1.60;;
54923;SDS011;40825;52.270;20.984;2023-05-10T07:01:13;7.30;;;2.00;;
54923;SDS011;40825;52.270;20.984;2023-05-10T07:03:38;8.30;;;2.00;;
54923;SDS011;40825;52.270;20.984;2023-05-10T07:06:04;7.40;;;2.00;;
54923;SDS011;40825;52.270;20.984;2023-05-10T07:08:33;6.40;;;2.10;;
54923;SDS011;40825;52.270;20.984;2023-05-10T07:11:03;4.10;;;1.70;;
54923;SDS011;40825;52.270;20.984;2023-05-10T07:13:33;6.10;;;1.80;;
54923;SDS011;40825;52.270;20.984;2023-05-10T07:15:59;5.00;;;1.80;;
54923;SDS011;40825;52.270;20.984;2023-05-10T07:18:25;5.00;;;1.70;;
54923;SDS011;40825;52.270;20.984;2023-05-10T07:20:51;6.00;;;1.60;;
54923;SDS011;40825;52.270;20.984;2023-05-10T07:23:17;6.00;;;1.90;;
54923;SDS011;40825;52.270;20.984;2023-05-10T07:25:49;6.80;;;1.90;;
54923;SDS011;40825;52.270;20.984;2023-05-10T07:28:17;6.20;;;1.50;;
54923;SDS011;40825;52.270;20.984;2023-05-10T07:30:43;5.70;;;1.70;;
54923;SDS011;40825;52.270;20.984;2023-05-10T07:33:09;7.20;;;1.80;;
54923;SDS011;40825;52.270;20.984;2023-05-10T07:35:36;4.90;;;1.70;;
54923;SDS011;40825;52.270;20.984;2023-05-10T07:38:02;7.40;;;1.50;;
54923;SDS011;40825;52.270;20.984;2023-05-10T07:40:28;3.80;;;1.40;;
54923;SDS011;40825;52.270;20.984;2023-05-10T07:42:54;4.50;;;1.50;;
54923;SDS011;40825;52.270;20.984;2023-05-10T07:45:19;5.30;;;1.50;;
54923;SDS011;40825;52.270;20.984;2023-05-10T07:47:45;7.90;;;1.90;;
54923;SDS011;40825;52.270;20.984;2023-05-10T07:50:10;3.80;;;1.40;;
54923;SDS011;40825;52.270;20.984;2023-05-10T07:52:36;6.00;;;1.90;;
54923;SDS011;40825;52.270;20.984;2023-05-10T07:55:01;5.30;;;1.50;;
54923;SDS011;40825;52.270;20.984;2023-05-10T07:57:27;4.10;;;1.30;;
54923;SDS011;40825;52.270;20.984;2023-05-10T07:59:53;4.50;;;1.40;;
54923;SDS011;40825;52.270;20.984;2023-05-10T08:02:18;5.30;;;1.60;;
54923;SDS011;40825;52.270;20.984;2023-05-10T08:04:43;3.20;;;1.50;;
54923;SDS011;40825;52.270;20.984;2023-05-10T08:07:09;6.60;;;1.30;;
54923;SDS011;40825;52.270;20.984;2023-05-10T08:09:35;4.10;;;1.30;;
54923;SDS011;40825;52.270;20.984;2023-05-10T08:12:01;3.40;;;1.30;;
54923;SDS011;40825;52.270;20.984;2023-05-10T08:14:28;5.80;;;1.40;;
54923;SDS011;40825;52.270;20.984;2023-05-10T08:16:54;4.60;;;1.30;;
54923;SDS011;40825;52.270;20.984;2023-05-10T08:19:20;4.00;;;1.20;;
54923;SDS011;40825;52.270;20.984;2023-05-10T08:21:46;4.70;;;1.30;;
54923;SDS011;40825;52.270;20.984;2023-05-10T08:24:12;5.50;;;1.20;;
54923;SDS011;40825;52.270;20.984;2023-05-10T08:26:38;5.80;;;1.70;;
54923;SDS011;40825;52.270;20.984;2023-05-10T08:29:03;9.20;;;1.60;;
54923;SDS011;40825;52.270;20.984;2023-05-10T08:31:29;4.50;;;1.20;;
54923;SDS011;40825;52.270;20.984;2023-05-10T08:33:55;3.70;;;1.20;;
54923;SDS011;40825;52.270;20.984;2023-05-10T08:36:20;4.50;;;1.40;;
54923;SDS011;40825;52.270;20.984;2023-05-10T08:38:52;6.10;;;1.50;;
54923;SDS011;40825;52.270;20.984;2023-05-10T08:41:22;3.60;;;1.10;;
54923;SDS011;40825;52.270;20.984;2023-05-10T08:43:50;3.50;;;1.20;;
54923;SDS011;40825;52.270;20.984;2023-05-10T08:46:20;6.40;;;2.00;;
54923;SDS011;40825;52.270;20.984;2023-05-10T08:48:47;4.50;;;1.50;;
54923;SDS011;40825;52.270;20.984;2023-05-10T08:51:15;5.40;;;1.50;;
54923;SDS011;40825;52.270;20.984;2023-05-10T08:53:43;6.50;;;1.30;;
54923;SDS011;40825;52.270;20.984;2023-05-10T08:56:10;3.50;;;1.40;;
54923;SDS011;40825;52.270;20.984;2023-05-10T08:58:36;6.50;;;1.40;;
54923;SDS011;40825;52.270;20.984;2023-05-10T09:01:02;3.80;;;1.40;;
54923;SDS011;40825;52.270;20.984;2023-05-10T09:03:29;3.90;;;1.30;;
54923;SDS011;40825;52.270;20.984;2023-05-10T09:05:55;4.70;;;1.50;;
54923;SDS011;40825;52.270;20.984;2023-05-10T09:08:21;4.40;;;1.50;;
54923;SDS011;40825;52.270;20.984;2023-05-10T09:10:51;3.80;;;1.60;;
54923;SDS011;40825;52.270;20.984;2023-05-10T09:13:17;5.40;;;1.40;;
54923;SDS011;40825;52.270;20.984;2023-05-10T09:15:44;3.00;;;1.30;;
54923;SDS011;40825;52.270;20.984;2023-05-10T09:18:11;4.10;;;1.50;;
54923;SDS011;40825;52.270;20.984;2023-05-10T09:20:37;3.00;;;1.40;;
54923;SDS011;40825;52.270;20.984;2023-05-10T09:23:02;3.00;;;1.60;;
54923;SDS011;40825;52.270;20.984;2023-05-10T09:25:28;7.30;;;1.80;;
54923;SDS011;40825;52.270;20.984;2023-05-10T09:27:54;3.40;;;1.30;;
54923;SDS011;40825;52.270;20.984;2023-05-10T09:30:24;5.20;;;1.80;;
54923;SDS011;40825;52.270;20.984;2023-05-10T09:32:51;5.40;;;1.30;;
54923;SDS011;40825;52.270;20.984;2023-05-10T09:35:18;4.10;;;1.40;;
54923;SDS011;40825;52.270;20.984;2023-05-10T09:37:46;4.90;;;1.80;;
54923;SDS011;40825;52.270;20.984;2023-05-10T09:42:41;4.90;;;1.50;;
54923;SDS011;40825;52.270;20.984;2023-05-10T09:45:08;4.90;;;1.90;;
54923;SDS011;40825;52.270;20.984;2023-05-10T09:47:34;2.00;;;1.20;;
54923;SDS011;40825;52.270;20.984;2023-05-10T09:50:01;3.10;;;1.30;;
54923;SDS011;40825;52.270;20.984;2023-05-10T09:52:30;6.50;;;1.70;;
54923;SDS011;40825;52.270;20.984;2023-05-10T09:55:10;5.40;;;1.30;;
54923;SDS011;40825;52.270;20.984;2023-05-10T09:57:35;7.60;;;1.70;;
54923;SDS011;40825;52.270;20.984;2023-05-10T10:00:01;3.90;;;1.30;;
54923;SDS011;40825;52.270;20.984;2023-05-10T10:02:30;5.10;;;1.40;;
54923;SDS011;40825;52.270;20.984;2023-05-10T10:04:56;5.90;;;1.50;;
54923;SDS011;40825;52.270;20.984;2023-05-10T10:07:23;6.60;;;1.20;;
54923;SDS011;40825;52.270;20.984;2023-05-10T10:09:52;4.10;;;1.90;;
54923;SDS011;40825;52.270;20.984;2023-05-10T10:12:18;5.90;;;1.30;;
54923;SDS011;40825;52.270;20.984;2023-05-10T10:14:48;5.60;;;2.10;;
54923;SDS011;40825;52.270;20.984;2023-05-10T10:17:15;4.70;;;1.50;;
54923;SDS011;40825;52.270;20.984;2023-05-10T10:19:41;3.80;;;1.50;;
54923;SDS011;40825;52.270;20.984;2023-05-10T10:22:08;5.20;;;1.40;;
54923;SDS011;40825;52.270;20.984;2023-05-10T10:24:35;5.60;;;1.40;;
54923;SDS011;40825;52.270;20.984;2023-05-10T10:27:04;6.80;;;2.00;;
54923;SDS011;40825;52.270;20.984;2023-05-10T10:30:13;4.00;;;1.70;;
54923;SDS011;40825;52.270;20.984;2023-05-10T10:35:49;7.70;;;2.40;;
54923;SDS011;40825;52.270;20.984;2023-05-10T10:38:16;3.90;;;1.40;;
54923;SDS011;40825;52.270;20.984;2023-05-10T10:40:42;4.00;;;1.50;;
54923;SDS011;40825;52.270;20.984;2023-05-10T10:43:24;3.90;;;1.60;;
54923;SDS011;40825;52.270;20.984;2023-05-10T10:48:49;5.60;;;1.40;;
54923;SDS011;40825;52.270;20.984;2023-05-10T10:51:36;7.10;;;1.60;;
54923;SDS011;40825;52.270;20.984;2023-05-10T10:54:11;4.90;;;1.30;;
54923;SDS011;40825;52.270;20.984;2023-05-10T10:56:37;3.70;;;1.40;;
54923;SDS011;40825;52.270;20.984;2023-05-10T10:59:02;4.90;;;1.60;;
54923;SDS011;40825;52.270;20.984;2023-05-10T11:01:34;5.10;;;1.40;;
54923;SDS011;40825;52.270;20.984;2023-05-10T11:06:32;5.40;;;1.50;;
54923;SDS011;40825;52.270;20.984;2023-05-10T11:09:10;5.30;;;1.90;;
54923;SDS011;40825;52.270;20.984;2023-05-10T11:11:53;5.00;;;1.60;;
54923;SDS011;40825;52.270;20.984;2023-05-10T11:14:23;5.70;;;1.60;;
54923;SDS011;40825;52.270;20.984;2023-05-10T11:16:49;4.70;;;1.10;;
54923;SDS011;40825;52.270;20.984;2023-05-10T11:19:15;6.80;;;1.30;;
54923;SDS011;40825;52.270;20.984;2023-05-10T11:21:49;3.40;;;1.20;;
54923;SDS011;40825;52.270;20.984;2023-05-10T11:24:17;4.30;;;1.50;;
54923;SDS011;40825;52.270;20.984;2023-05-10T11:26:44;5.00;;;1.30;;
54923;SDS011;40825;52.270;20.984;2023-05-10T11:29:12;2.90;;;1.20;;
54923;SDS011;40825;52.270;20.984;2023-05-10T11:31:42;4.80;;;1.30;;
54923;SDS011;40825;52.270;20.984;2023-05-10T11:34:13;5.20;;;1.60;;
54923;SDS011;40825;52.270;20.984;2023-05-10T11:36:55;4.10;;;1.50;;
54923;SDS011;40825;52.270;20.984;2023-05-10T11:39:24;3.80;;;1.20;;
54923;SDS011;40825;52.270;20.984;2023-05-10T11:41:51;5.60;;;1.40;;
54923;SDS011;40825;52.270;20.984;2023-05-10T11:44:17;3.60;;;1.30;;
54923;SDS011;40825;52.270;20.984;2023-05-10T11:46:42;7.20;;;1.30;;
54923;SDS011;40825;52.270;20.984;2023-05-10T11:49:08;5.10;;;1.30;;
54923;SDS011;40825;52.270;20.984;2023-05-10T11:51:34;4.60;;;1.30;;
54923;SDS011;40825;52.270;20.984;2023-05-10T11:54:01;6.10;;;1.50;;
54923;SDS011;40825;52.270;20.984;2023-05-10T11:56:32;3.20;;;1.40;;
54923;SDS011;40825;52.270;20.984;2023-05-10T11:58:58;5.00;;;1.60;;
54923;SDS011;40825;52.270;20.984;2023-05-10T12:01:27;6.20;;;1.60;;
54923;SDS011;40825;52.270;20.984;2023-05-10T12:03:54;4.70;;;1.30;;
54923;SDS011;40825;52.270;20.984;2023-05-10T12:06:25;4.20;;;1.20;;
54923;SDS011;40825;52.270;20.984;2023-05-10T12:08:53;5.20;;;1.50;;
54923;SDS011;40825;52.270;20.984;2023-05-10T12:11:19;4.70;;;2.10;;
54923;SDS011;40825;52.270;20.984;2023-05-10T12:13:46;5.30;;;1.40;;
54923;SDS011;40825;52.270;20.984;2023-05-10T12:16:22;4.10;;;1.30;;
54923;SDS011;40825;52.270;20.984;2023-05-10T12:18:49;5.30;;;1.70;;
54923;SDS011;40825;52.270;20.984;2023-05-10T12:21:25;6.50;;;1.40;;
54923;SDS011;40825;52.270;20.984;2023-05-10T12:23:53;3.70;;;1.70;;
54923;SDS011;40825;52.270;20.984;2023-05-10T12:26:24;4.20;;;1.40;;
54923;SDS011;40825;52.270;20.984;2023-05-10T12:28:54;4.00;;;1.20;;
54923;SDS011;40825;52.270;20.984;2023-05-10T12:31:20;4.40;;;1.40;;
54923;SDS011;40825;52.270;20.984;2023-05-10T12:33:46;5.40;;;1.50;;
54923;SDS011;40825;52.270;20.984;2023-05-10T12:36:13;4.50;;;1.50;;
54923;SDS011;40825;52.270;20.984;2023-05-10T12:38:40;3.70;;;1.40;;
54923;SDS011;40825;52.270;20.984;2023-05-10T12:41:14;6.60;;;1.40;;
54923;SDS011;40825;52.270;20.984;2023-05-10T12:43:41;7.40;;;1.20;;
54923;SDS011;40825;52.270;20.984;2023-05-10T12:46:07;6.10;;;1.60;;
54923;SDS011;40825;52.270;20.984;2023-05-10T12:48:35;4.70;;;1.30;;
54923;SDS011;40825;52.270;20.984;2023-05-10T12:51:01;4.60;;;1.40;;
54923;SDS011;40825;52.270;20.984;2023-05-10T12:53:28;5.30;;;1.30;;
54923;SDS011;40825;52.270;20.984;2023-05-10T12:55:53;6.40;;;1.30;;
54923;SDS011;40825;52.270;20.984;2023-05-10T12:58:19;4.60;;;1.60;;
54923;SDS011;40825;52.270;20.984;2023-05-10T13:00:45;4.50;;;1.60;;
54923;SDS011;40825;52.270;20.984;2023-05-10T13:03:11;3.20;;;1.30;;
54923;SDS011;40825;52.270;20.984;2023-05-10T13:05:37;5.70;;;2.10;;
54923;SDS011;40825;52.270;20.984;2023-05-10T13:08:03;5.60;;;1.20;;
54923;SDS011;40825;52.270;20.984;2023-05-10T13:10:29;5.10;;;1.20;;
54923;SDS011;40825;52.270;20.984;2023-05-10T13:12:56;4.00;;;1.20;;
54923;SDS011;40825;52.270;20.984;2023-05-10T13:15:22;3.60;;;1.40;;
54923;SDS011;40825;52.270;20.984;2023-05-10T13:17:47;3.70;;;1.20;;
54923;SDS011;40825;52.270;20.984;2023-05-10T13:20:13;4.30;;;1.50;;
54923;SDS011;40825;52.270;20.984;2023-05-10T13:22:40;3.70;;;1.00;;
54923;SDS011;40825;52.270;20.984;2023-05-10T13:25:07;2.90;;;1.20;;
54923;SDS011;40825;52.270;20.984;2023-05-10T13:27:33;5.50;;;2.10;;
54923;SDS011;40825;52.270;20.984;2023-05-10T13:29:59;5.40;;;1.60;;
54923;SDS011;40825;52.270;20.984;2023-05-10T13:32:25;4.60;;;1.70;;
54923;SDS011;40825;52.270;20.984;2023-05-10T13:34:51;6.10;;;1.90;;
54923;SDS011;40825;52.270;20.984;2023-05-10T13:37:17;5.10;;;1.50;;
54923;SDS011;40825;52.270;20.984;2023-05-10T13:39:43;5.70;;;1.30;;
54923;SDS011;40825;52.270;20.984;2023-05-10T13:42:08;4.50;;;1.10;;
54923;SDS011;40825;52.270;20.984;2023-05-10T13:44:34;5.00;;;1.60;;
54923;SDS011;40825;52.270;20.984;2023-05-10T13:47:01;6.00;;;1.60;;
54923;SDS011;40825;52.270;20.984;2023-05-10T13:49:26;2.70;;;1.30;;
54923;SDS011;40825;52.270;20.984;2023-05-10T13:51:52;5.30;;;1.50;;
54923;SDS011;40825;52.270;20.984;2023-05-10T13:54:18;3.80;;;1.40;;
54923;SDS011;40825;52.270;20.984;2023-05-10T13:56:47;3.60;;;1.20;;
54923;SDS011;40825;52.270;20.984;2023-05-10T13:59:13;4.70;;;1.20;;
54923;SDS011;40825;52.270;20.984;2023-05-10T14:01:40;4.50;;;1.10;;
54923;SDS011;40825;52.270;20.984;2023-05-10T14:04:06;3.60;;;1.40;;
54923;SDS011;40825;52.270;20.984;2023-05-10T14:06:35;4.70;;;1.40;;
54923;SDS011;40825;52.270;20.984;2023-05-10T14:09:01;6.50;;;1.40;;
54923;SDS011;40825;52.270;20.984;2023-05-10T14:11:28;5.50;;;1.30;;
54923;SDS011;40825;52.270;20.984;2023-05-10T14:13:54;3.40;;;1.30;;
54923;SDS011;40825;52.270;20.984;2023-05-10T14:16:19;5.50;;;1.00;;
54923;SDS011;40825;52.270;20.984;2023-05-10T14:18:45;4.50;;;1.30;;
54923;SDS011;40825;52.270;20.984;2023-05-10T14:21:11;3.80;;;1.20;;
54923;SDS011;40825;52.270;20.984;2023-05-10T14:23:37;4.50;;;1.20;;
54923;SDS011;40825;52.270;20.984;2023-05-10T14:26:03;3.40;;;0.90;;
54923;SDS011;40825;52.270;20.984;2023-05-10T14:28:29;4.30;;;1.70;;
54923;SDS011;40825;52.270;20.984;2023-05-10T14:30:55;3.80;;;1.30;;
54923;SDS011;40825;52.270;20.984;2023-05-10T14:33:20;6.10;;;1.50;;
54923;SDS011;40825;52.270;20.984;2023-05-10T14:35:46;3.80;;;1.40;;
54923;SDS011;40825;52.270;20.984;2023-05-10T14:38:13;3.90;;;1.50;;
54923;SDS011;40825;52.270;20.984;2023-05-10T14:40:40;4.50;;;1.80;;
54923;SDS011;40825;52.270;20.984;2023-05-10T14:43:05;3.80;;;1.20;;
54923;SDS011;40825;52.270;20.984;2023-05-10T14:45:31;5.40;;;1.40;;
54923;SDS011;40825;52.270;20.984;2023-05-10T14:47:57;3.80;;;1.20;;
54923;SDS011;40825;52.270;20.984;2023-05-10T14:50:23;4.00;;;1.40;;
54923;SDS011;40825;52.270;20.984;2023-05-10T14:52:49;4.30;;;1.40;;
54923;SDS011;40825;52.270;20.984;2023-05-10T14:55:15;6.80;;;1.30;;
54923;SDS011;40825;52.270;20.984;2023-05-10T14:57:41;4.10;;;1.60;;
54923;SDS011;40825;52.270;20.984;2023-05-10T15:00:07;4.90;;;1.30;;
54923;SDS011;40825;52.270;20.984;2023-05-10T15:02:34;3.70;;;1.30;;
54923;SDS011;40825;52.270;20.984;2023-05-10T15:04:59;3.50;;;1.20;;
54923;SDS011;40825;52.270;20.984;2023-05-10T15:07:26;4.20;;;1.50;;
54923;SDS011;40825;52.270;20.984;2023-05-10T15:09:51;4.50;;;1.30;;
54923;SDS011;40825;52.270;20.984;2023-05-10T15:12:17;4.40;;;1.20;;
54923;SDS011;40825;52.270;20.984;2023-05-10T15:14:43;4.70;;;1.30;;